Portada
METAR-TAF:

METAR-TAF

Aeroports :

Dharamsala, Índia

latitud: 32-09-54N, longitud: 76-15-48E, altitud: 770 m

Observació

L'informe es va fer fa 4 hores i 14 minuts, a les 07:30 UTC
Vent 7 kt del Nord/Nord-Est
Temperatura 31°C
Humitat 71%
Pressió 1005 hPa
Visibilitat: 6000 m
Cel ennuvolat a una alçada de 3000 ft
Escasses núvols a una alçada de 3500 ft, Cumulonimbus.

METAR: VIGG 090730Z 02007KT 6000 BKN030 FEW035CB 31/25 Q1005

Hora: 17:14 (11:44 UTC)

Pronòstic

L'informe es va fer fa 6 hores i 44 minuts, a les 05:00 UTC
Pronòstic vàlid del 09 a les 06 UTC al 09 a les 15 UTC
Vent 5 kt del Oest
Visibilitat: 5000 m
Núvols disperses a una alçada de 2500 ft
Cel cobert a una alçada de 8000 ft
boirina, pluja
Temporalment
l' 09 a les 06 UTC al 09 a les 10 UTC
Visibilitat: 1500 m
Escasses núvols a una alçada de 3000 ft, Cumulonimbus.
Cel cobert a una alçada de 6000 ft
tempesta, pluja

TAF: VIGG 090500Z 0906/0915 27005KT 5000 BR -RA SCT025 OVC080 TEMPO 0906/0910 1500 TSRA FEW030CB OVC060

Observacions i pronòstics meteorològics de més de 4000 aeroports (METAR i TAF).

Les estacions disponibles són els punts grocs i vermells al mapa.

Posi el ratolí al punt desitjat per veure el nom de l'estació.

Feu clic per veure les observacions i els pronòstics meteorològics.

Per canviar el mapa: feu clic els botons verds amb una creu de color negre per apropar; al botó verd amb un guió per allunyar la imatge; o en les fletxes verdes per a mapes adjacents.


METAR-TAF: